• Join FlightAware (Why Join?)
  • Login
  • US Flag 
04:24AM EDT


 

Airport Tracker/Info


-or-


 

Live Flight TrackerFlight Track Log ✈ SWA3943 ✈ 11-Apr-2013 ✈ KBWI - KMHT

Flight Track Log - Related Links

Times and Time Zones

All times are in EDT time to prevent confusion due to time zone crossing. See the SWA3943 flight status page for this flight to view local times or setup timezone preferences in your user account.

Time Position Orientation Groundspeed Altitude Reporting Facility
EDT Latitude Longitude Course Direction KTS MPH feet Rate Location/Type
11:07PM 39.1031 -76.5947 133° Southeast 184 212 4,900  Level Washington Center
11:08PM 39.0725 -76.5114 115° Southeast 234 269 7,700 3,060 Climbing Washington Center
11:09PM 39.0942 -76.3992 76° East 256 295 11,000 3,300 Climbing Washington Center
11:10PM 39.1178 -76.2764 76° East 304 350 14,400 3,360 Climbing Washington Center
11:11PM 39.1414 -76.1589 75° East 352 405 17,800 3,300 Climbing Washington Center
11:12PM 39.1689 -76.0172 76° East 382 440 21,000 3,000 Climbing Washington Center
11:13PM 39.2028 -75.8728 73° East 402 463 23,800 2,460 Climbing Washington Center
11:14PM 39.2883 -75.7578 46° Northeast 413 475 26,000 2,040 Climbing Washington Center
11:15PM 39.3761 -75.6453 45° Northeast 424 488 27,900 1,980 Climbing Washington Center
11:16PM 39.4636 -75.5325 45° Northeast 429 494 30,000 2,040 Climbing Washington Center
11:17PM 39.5656 -75.4328 37° Northeast 438 504 32,100 2,160 Climbing Washington Center
11:18PM 39.6842 -75.3731 21° North 450 518 34,400 2,160 Climbing Washington Center
11:18PM 39.7561 -75.3397 20° North 446 513 35,600 1,560 Climbing New York Center
11:19PM 39.8772 -75.2800 21° North 456 525 37,000 660 Climbing New York Center
11:20PM 40.0089 -75.2153 21° North 461 531 37,000  Level New York Center
11:21PM 40.1281 -75.1553 21° North 456 525 37,000  Level New York Center
11:22PM 40.2447 -75.0947 22° Northeast 456 525 37,000  Level New York Center
11:24PM 40.4836 -74.9750 21° North 457 526 37,000  Level Boston Center
11:25PM 40.5997 -74.9139 22° Northeast 457 526 37,000  Level Boston Center
11:26PM 40.7175 -74.8581 20° North 452 520 37,000  Level Boston Center
11:27PM 40.8336 -74.7964 22° Northeast 452 520 37,000  Level Boston Center
11:28PM 40.9536 -74.7378 20° North 452 520 37,000  Level Boston Center
11:29PM 41.0694 -74.6783 21° North 452 520 37,000  Level Boston Center
11:30PM 41.1872 -74.6164 22° Northeast 452 520 37,000  Level Boston Center
11:31PM 41.3178 -74.5572 19° North 452 520 37,000  Level Boston Center
11:32PM 41.4333 -74.4975 21° North 452 520 37,000 -60 Level Boston Center
11:33PM 41.5367 -74.4342 25° Northeast 452 520 36,900 -660 Descending Boston Center
11:34PM 41.6411 -74.2983 44° Northeast 452 520 35,800 -1,080 Descending Boston Center
11:35PM 41.7247 -74.1564 52° Northeast 458 527 34,800 -960 Descending Boston Center
11:36PM 41.8017 -74.0192 53° Northeast 464 534 33,900 -900 Descending Boston Center
11:37PM 41.8847 -73.8817 51° Northeast 464 534 33,000 -960 Descending Boston Center
11:38PM 41.9658 -73.7383 53° Northeast 474 545 32,000 -1,020 Descending Boston Center
11:39PM 42.0486 -73.6031 50° Northeast 474 545 31,000 -1,020 Descending Boston Center
11:40PM 42.1311 -73.4619 52° Northeast 479 551 30,000 -1,020 Descending Boston Center
11:41PM 42.2031 -73.3342 53° Northeast 460 529 29,000 -1,020 Descending Boston Center
11:42PM 42.2792 -73.2033 52° Northeast 441 507 28,000 -1,380 Descending Boston Center
11:43PM 42.3550 -73.0639 54° Northeast 443 510 26,300 -1,920 Descending Boston Center
11:44PM 42.4264 -72.9408 52° Northeast 443 510 24,200 -2,100 Descending Boston Center
11:45PM 42.4978 -72.8144 53° Northeast 430 495 22,200 -2,520 Descending Boston Center
11:46PM 42.5544 -72.6797 60° Northeast 419 482 19,300 -2,280 Descending Boston Center
11:47PM 42.6025 -72.5500 63° Northeast 413 475 17,700 -1,860 Descending Boston Center
11:48PM 42.6525 -72.4119 64° Northeast 413 475 15,600 -2,220 Descending Boston Center
11:49PM 42.7025 -72.2622 66° East 401 461 13,300 -2,100 Descending Boston Center
11:50PM 42.7481 -72.1319 65° Northeast 383 441 11,500 -1,680 Descending Boston Center
11:51PM 42.7914 -72.0072 65° Northeast 363 418 10,000 -1,260 Descending Boston Center
11:52PM 42.8033 -71.8883 82° East 330 380 9,000 -1,140 Descending Boston Center
11:53PM 42.7964 -71.7694 95° East 318 366 7,800 -1,200 Descending Boston Center
11:54PM 42.7894 -71.6564 95° East 307 353 6,600 -1,140 Descending Boston Center
11:55PM 42.7844 -71.5519 94° East 282 325 5,600 -960 Descending Boston Center
11:56PM 42.7797 -71.4728 95° East 248 285 4,700 -1,260 Descending Boston Center
11:57PM 42.7747 -71.3850 94° East 219 252 3,100 -1,080 Descending Boston Center
11:58PM 42.8100 -71.3647 23° Northeast 148 170 2,600 -660 Descending Boston Center
12:00AM 42.8625 -71.3919 339° North 139 160 1,600 -840 Descending Boston Center
12:01AM 42.9003 -71.4169 334° Northwest 138 159 700 -600 Descending Boston Center
12:02AM 42.9336 -71.4361 337° Northwest 132 152 400 4,200 Descending Boston Center
12:03AM 42.9650 -71.4556 336° Northwest 132 152 9,000 4,320 Climbing Boston Center
12:04AM 42.9967 -71.4778 333° Northwest 132 152 9,000  Level Boston Center
12:05AM 43.0281 -71.4972 336° Northwest 132 152 9,000  Level Boston Center
12:07AM 42.9328 -71.4358 160° South  Level Estimated
12:14AM 42.9328 -71.4358 160° South  Level Estimated
12:15AM 42.9328 -71.4358 160° South  Level Estimated
12:16AM 42.9328 -71.4358 160° South  Level Estimated
12:17AM 42.9328 -71.4358 160° South  Level Estimated
12:18AM 42.9328 -71.4358 160° South  Level Estimated
12:19AM 42.9328 -71.4358 160° South  Level Estimated